Time;durP1;ratioP1;P1;durP2;ratioP2;P2;SDS_P1;SDS_P2;PMS_P1;PMS_P2;Temp;Humidity;BMP_temperature;BMP_pressure;BME280_temperature;BME280_humidity;BME280_pressure;Samples;Min_cycle;Max_cycle;Signal;HPM_P1;HPM_P2
2022/12/05 00:01:55;;;;;;;49.53;19.97;;;;;;;;;;5005679;28;20479;-69
2022/12/05 00:04:20;;;;;;;47.40;19.65;;;;;;;;;;4998733;28;20275;-69
2022/12/05 00:06:45;;;;;;;49.28;19.92;;;;;;;;;;4996942;28;20099;-69
2022/12/05 00:09:13;;;;;;;46.75;18.67;;;;;;;;;;5003853;28;20014;-69
2022/12/05 00:11:39;;;;;;;48.95;19.75;;;;;;;;;;5000084;28;20022;-69
2022/12/05 00:14:04;;;;;;;47.95;20.23;;;;;;;;;;4997895;28;20318;-69
2022/12/05 00:16:30;;;;;;;56.95;21.95;;;;;;;;;;5001149;28;20038;-69
2022/12/05 00:18:58;;;;;;;49.17;20.30;;;;;;;;;;5000149;28;20109;-69
2022/12/05 00:21:24;;;;;;;45.47;20.38;;;;;;;;;;5003674;28;20079;-68
2022/12/05 00:23:50;;;;;;;44.70;19.00;;;;;;;;;;5005461;28;20356;-68
2022/12/05 00:26:15;;;;;;;49.60;20.50;;;;;;;;;;4999952;28;20025;-70
2022/12/05 00:28:40;;;;;;;46.25;19.70;;;;;;;;;;4996793;28;20490;-69
2022/12/05 00:31:07;;;;;;;46.13;19.08;;;;;;;;;;5003601;28;20041;-68
2022/12/05 00:33:32;;;;;;;51.47;21.25;;;;;;;;;;5009348;28;20109;-68
2022/12/05 00:36:11;;;;;;;48.85;19.83;;;;;;;;;;5002621;28;20164;-70
2022/12/05 00:38:37;;;;;;;50.50;19.33;;;;;;;;;;5002213;28;20032;-69
2022/12/05 00:41:06;;;;;;;43.58;19.58;;;;;;;;;;5001933;28;20013;-69
2022/12/05 00:43:32;;;;;;;51.50;21.13;;;;;;;;;;4995731;28;20018;-69
2022/12/05 00:46:01;;;;;;;45.67;19.02;;;;;;;;;;4996435;28;20030;-69
2022/12/05 00:48:26;;;;;;;46.17;19.55;;;;;;;;;;5002769;28;20083;-68
2022/12/05 00:50:58;;;;;;;46.60;19.50;;;;;;;;;;5017133;28;20475;-69
2022/12/05 00:53:23;;;;;;;48.03;20.00;;;;;;;;;;5016138;28;20036;-69
2022/12/05 00:55:48;;;;;;;48.07;19.17;;;;;;;;;;4994281;28;20030;-68
2022/12/05 00:58:14;;;;;;;51.83;20.37;;;;;;;;;;4993266;28;20835;-69
2022/12/05 01:00:39;;;;;;;55.47;19.00;;;;;;;;;;4990108;28;20293;-69
2022/12/05 01:03:04;;;;;;;52.13;20.20;;;;;;;;;;4993403;28;20839;-69
2022/12/05 01:05:29;;;;;;;55.88;22.00;;;;;;;;;;4998792;28;20360;-69
2022/12/05 01:07:54;;;;;;;50.77;19.13;;;;;;;;;;5007938;28;20026;-69
2022/12/05 01:10:19;;;;;;;53.00;20.38;;;;;;;;;;5001440;28;20276;-69
2022/12/05 01:12:45;;;;;;;51.22;19.88;;;;;;;;;;5013460;28;20073;-68
2022/12/05 01:15:10;;;;;;;52.95;21.20;;;;;;;;;;4998648;28;20054;-69
2022/12/05 01:17:35;;;;;;;50.90;19.48;;;;;;;;;;5002545;28;20022;-69
2022/12/05 01:20:00;;;;;;;45.67;17.30;;;;;;;;;;4999835;28;20022;-69
2022/12/05 01:22:26;;;;;;;51.22;19.33;;;;;;;;;;5002559;28;20026;-69
2022/12/05 01:24:51;;;;;;;43.42;18.42;;;;;;;;;;5001978;28;20071;-68
2022/12/05 01:27:16;;;;;;;49.40;19.23;;;;;;;;;;5010550;28;20018;-69
2022/12/05 01:29:41;;;;;;;52.22;18.67;;;;;;;;;;4996261;28;20026;-69
2022/12/05 01:32:07;;;;;;;42.17;18.08;;;;;;;;;;5002515;28;20032;-69
2022/12/05 01:34:32;;;;;;;48.60;18.33;;;;;;;;;;5002431;28;20022;-69
2022/12/05 01:36:57;;;;;;;43.95;18.25;;;;;;;;;;5007559;28;20032;-69
2022/12/05 01:39:22;;;;;;;45.22;19.92;;;;;;;;;;5003940;28;20490;-69
2022/12/05 01:41:48;;;;;;;55.38;20.63;;;;;;;;;;5006552;28;20069;-69
2022/12/05 01:44:13;;;;;;;51.42;19.23;;;;;;;;;;5000450;28;20021;-69
2022/12/05 01:46:42;;;;;;;55.38;18.77;;;;;;;;;;5002631;28;20037;-69
2022/12/05 01:49:15;;;;;;;44.90;18.02;;;;;;;;;;5012206;28;20486;-69
2022/12/05 01:51:43;;;;;;;47.10;17.58;;;;;;;;;;5010426;28;20033;-68
2022/12/05 01:54:09;;;;;;;43.75;19.00;;;;;;;;;;5009005;28;20030;-68
2022/12/05 01:56:35;;;;;;;47.33;19.30;;;;;;;;;;4993892;28;20034;-68
2022/12/05 01:59:01;;;;;;;44.80;18.52;;;;;;;;;;5000258;28;20023;-69
2022/12/05 02:01:26;;;;;;;53.08;18.83;;;;;;;;;;5005809;28;20026;-69
2022/12/05 02:03:54;;;;;;;50.28;19.25;;;;;;;;;;4997688;28;20078;-69
2022/12/05 02:06:20;;;;;;;43.83;18.50;;;;;;;;;;5001791;28;20534;-68
2022/12/05 02:08:46;;;;;;;49.78;18.10;;;;;;;;;;5007654;28;20052;-69
2022/12/05 02:11:11;;;;;;;47.95;18.17;;;;;;;;;;5018641;28;20046;-68
2022/12/05 02:13:39;;;;;;;49.75;19.27;;;;;;;;;;5020885;28;20024;-69
2022/12/05 02:16:10;;;;;;;44.63;18.33;;;;;;;;;;5012464;28;20041;-69
2022/12/05 02:18:52;;;;;;;50.65;19.75;;;;;;;;;;5008811;28;20021;-69
2022/12/05 02:21:35;;;;;;;47.13;19.30;;;;;;;;;;5002633;28;20014;-69
2022/12/05 02:24:13;;;;;;;49.40;19.02;;;;;;;;;;5005133;28;20030;-69
2022/12/05 02:26:58;;;;;;;56.53;19.55;;;;;;;;;;5011680;28;20097;-68
2022/12/05 02:29:29;;;;;;;55.95;20.85;;;;;;;;;;5012056;28;20022;-68
2022/12/05 02:32:02;;;;;;;49.63;19.23;;;;;;;;;;5001938;28;20061;-68
2022/12/05 02:34:37;;;;;;;49.65;19.48;;;;;;;;;;5005164;28;20021;-69
2022/12/05 02:37:13;;;;;;;50.95;19.30;;;;;;;;;;5007975;28;20052;-69
2022/12/05 02:39:44;;;;;;;46.33;18.27;;;;;;;;;;5010903;28;20038;-68
2022/12/05 02:42:14;;;;;;;47.28;18.50;;;;;;;;;;5013597;28;20029;-69
2022/12/05 02:44:46;;;;;;;52.13;20.90;;;;;;;;;;5019695;28;20033;-70
2022/12/05 02:47:13;;;;;;;44.00;18.55;;;;;;;;;;5006395;28;20395;-69
2022/12/05 02:49:39;;;;;;;43.20;17.52;;;;;;;;;;5008690;28;20095;-69
2022/12/05 02:52:08;;;;;;;43.70;18.25;;;;;;;;;;5013703;28;20599;-67
2022/12/05 02:54:39;;;;;;;51.85;19.42;;;;;;;;;;5017144;28;20028;-69
2022/12/05 02:57:06;;;;;;;49.20;18.75;;;;;;;;;;5008259;28;20041;-68
2022/12/05 02:59:31;;;;;;;51.97;18.38;;;;;;;;;;5010391;28;20026;-70
2022/12/05 03:01:56;;;;;;;44.13;18.00;;;;;;;;;;5001503;28;20029;-67
2022/12/05 03:04:22;;;;;;;48.30;19.25;;;;;;;;;;5024491;28;20021;-69
2022/12/05 03:07:05;;;;;;;49.22;18.80;;;;;;;;;;5004486;28;20677;-69
2022/12/05 03:09:34;;;;;;;47.10;17.52;;;;;;;;;;5000339;28;20026;-69
2022/12/05 03:12:08;;;;;;;46.85;19.10;;;;;;;;;;5019674;28;20104;-69
2022/12/05 03:14:40;;;;;;;47.58;17.80;;;;;;;;;;5010281;28;20029;-69
2022/12/05 03:17:09;;;;;;;51.92;18.90;;;;;;;;;;5000065;28;20517;-69
2022/12/05 03:19:57;;;;;;;51.92;17.33;;;;;;;;;;5010866;28;20048;-68
2022/12/05 03:22:30;;;;;;;46.15;17.48;;;;;;;;;;5011973;28;20493;-70
2022/12/05 03:24:55;;;;;;;50.33;19.45;;;;;;;;;;5011100;28;20018;-69
2022/12/05 03:27:32;;;;;;;45.60;18.63;;;;;;;;;;5005483;28;20029;-70
2022/12/05 03:30:24;;;;;;;42.38;16.33;;;;;;;;;;5006225;28;20045;-69
2022/12/05 03:32:52;;;;;;;49.55;17.40;;;;;;;;;;5007084;28;20041;-70
2022/12/05 03:35:23;;;;;;;49.20;17.27;;;;;;;;;;5000009;28;20111;-70
2022/12/05 03:37:54;;;;;;;46.42;18.73;;;;;;;;;;5021411;28;20033;-69
2022/12/05 03:40:26;;;;;;;49.28;16.98;;;;;;;;;;5004978;28;20119;-70
2022/12/05 03:43:18;;;;;;;45.97;17.25;;;;;;;;;;4998342;28;20022;-70
2022/12/05 03:45:48;;;;;;;42.20;17.25;;;;;;;;;;5007983;28;20168;-71
2022/12/05 03:48:13;;;;;;;45.30;18.10;;;;;;;;;;4997795;28;20057;-70
2022/12/05 03:50:40;;;;;;;46.15;17.58;;;;;;;;;;4999600;28;20154;-69
2022/12/05 03:53:26;;;;;;;49.67;18.33;;;;;;;;;;5012988;28;20342;-70
2022/12/05 03:55:58;;;;;;;46.55;17.27;;;;;;;;;;4999867;28;20036;-70
2022/12/05 03:58:31;;;;;;;41.95;17.70;;;;;;;;;;5002139;28;20022;-70
2022/12/05 04:00:58;;;;;;;48.50;18.02;;;;;;;;;;5004574;28;20080;-69
2022/12/05 04:03:37;;;;;;;44.58;17.50;;;;;;;;;;5012106;28;20028;-69
2022/12/05 04:06:03;;;;;;;46.85;16.48;;;;;;;;;;5004401;28;20022;-70
2022/12/05 04:08:29;;;;;;;45.10;16.38;;;;;;;;;;5002647;28;20381;-70
2022/12/05 04:10:58;;;;;;;45.13;16.23;;;;;;;;;;4995400;28;20516;-70
2022/12/05 04:13:35;;;;;;;47.53;18.50;;;;;;;;;;4991778;28;20034;-69
2022/12/05 04:18:53;;;;;;;45.42;17.33;;;;;;;;;;5007842;28;20039;-70
2022/12/05 04:21:37;;;;;;;47.35;16.60;;;;;;;;;;4998090;28;20045;-70
2022/12/05 04:27:09;;;;;;;36.35;15.95;;;;;;;;;;5000900;28;20083;-69
2022/12/05 04:29:40;;;;;;;45.10;18.08;;;;;;;;;;5000851;28;20033;-70
2022/12/05 04:32:07;;;;;;;40.33;16.45;;;;;;;;;;4999994;28;20517;-69
2022/12/05 04:34:33;;;;;;;40.90;15.50;;;;;;;;;;5008899;28;20026;-70
2022/12/05 04:37:03;;;;;;;41.45;16.23;;;;;;;;;;5040312;23;20045;-70
2022/12/05 04:39:33;;;;;;;50.73;16.40;;;;;;;;;;5027125;28;20029;-71
2022/12/05 04:42:03;;;;;;;41.42;17.92;;;;;;;;;;5025356;28;20478;-71
2022/12/05 04:44:31;;;;;;;48.60;20.23;;;;;;;;;;5046686;28;20032;-69
2022/12/05 04:46:58;;;;;;;44.20;16.45;;;;;;;;;;5024909;28;20101;-69
2022/12/05 04:49:25;;;;;;;43.60;18.55;;;;;;;;;;5022235;28;20032;-69
2022/12/05 04:51:51;;;;;;;51.03;17.00;;;;;;;;;;5026693;28;20032;-70
2022/12/05 04:54:20;;;;;;;38.95;14.80;;;;;;;;;;5015273;28;20026;-71
2022/12/05 04:56:47;;;;;;;45.72;15.95;;;;;;;;;;5023476;28;20029;-71
2022/12/05 04:59:12;;;;;;;41.53;16.40;;;;;;;;;;5027900;28;20025;-69
2022/12/05 05:01:40;;;;;;;45.53;15.77;;;;;;;;;;5021270;28;20024;-71
2022/12/05 05:04:05;;;;;;;45.53;17.13;;;;;;;;;;5019461;28;20025;-73
2022/12/05 05:06:30;;;;;;;37.92;14.07;;;;;;;;;;5031094;28;20087;-69
2022/12/05 05:08:56;;;;;;;40.33;16.15;;;;;;;;;;5016974;28;20753;-72
2022/12/05 05:11:22;;;;;;;38.75;13.70;;;;;;;;;;5019074;28;20080;-70
2022/12/05 05:13:47;;;;;;;49.22;17.63;;;;;;;;;;5019231;28;20056;-70
2022/12/05 05:16:16;;;;;;;38.35;16.67;;;;;;;;;;5027484;28;20084;-69
2022/12/05 05:18:42;;;;;;;42.90;16.33;;;;;;;;;;5028275;28;20021;-69
2022/12/05 05:21:12;;;;;;;47.65;17.38;;;;;;;;;;5016861;28;20030;-71
2022/12/05 05:23:37;;;;;;;42.88;17.13;;;;;;;;;;5022099;28;20040;-71
2022/12/05 05:26:03;;;;;;;50.77;16.67;;;;;;;;;;5028832;28;20112;-70
2022/12/05 05:28:28;;;;;;;38.75;16.20;;;;;;;;;;5029137;28;20294;-70
2022/12/05 05:30:53;;;;;;;35.70;13.85;;;;;;;;;;5036206;28;20021;-69
2022/12/05 05:33:18;;;;;;;36.92;15.65;;;;;;;;;;5023532;28;20025;-69
2022/12/05 05:35:44;;;;;;;45.88;17.27;;;;;;;;;;5023186;28;20478;-69
2022/12/05 05:38:09;;;;;;;44.92;17.15;;;;;;;;;;5024243;28;20474;-69
2022/12/05 05:40:35;;;;;;;55.47;17.58;;;;;;;;;;5017919;28;20045;-69
2022/12/05 05:43:00;;;;;;;44.03;16.30;;;;;;;;;;5032771;28;20010;-70
2022/12/05 05:45:26;;;;;;;41.33;14.95;;;;;;;;;;5033870;28;20025;-71
2022/12/05 05:47:51;;;;;;;46.97;17.83;;;;;;;;;;5030816;28;20451;-69
2022/12/05 05:50:16;;;;;;;46.40;16.02;;;;;;;;;;5028378;28;20068;-70
2022/12/05 05:52:41;;;;;;;38.80;16.23;;;;;;;;;;5027140;28;20053;-69
2022/12/05 05:55:07;;;;;;;46.35;17.90;;;;;;;;;;5026864;28;20036;-72
2022/12/05 05:57:33;;;;;;;44.38;15.68;;;;;;;;;;5025802;28;20025;-71
2022/12/05 05:59:58;;;;;;;42.85;17.50;;;;;;;;;;5023790;28;20045;-70
2022/12/05 06:02:23;;;;;;;48.53;17.87;;;;;;;;;;5021763;28;20026;-70
2022/12/05 06:04:48;;;;;;;45.13;16.95;;;;;;;;;;5024609;28;20291;-71
2022/12/05 06:07:14;;;;;;;58.20;18.27;;;;;;;;;;5029133;28;20108;-70
2022/12/05 06:09:39;;;;;;;39.78;15.27;;;;;;;;;;5027775;28;20068;-69
2022/12/05 06:12:04;;;;;;;40.85;15.73;;;;;;;;;;5028020;28;20041;-69
2022/12/05 06:14:29;;;;;;;44.67;17.45;;;;;;;;;;5020637;28;20059;-71
2022/12/05 06:16:55;;;;;;;44.40;18.15;;;;;;;;;;5027733;28;20021;-69
2022/12/05 06:19:20;;;;;;;55.83;17.60;;;;;;;;;;5028318;28;20030;-70
2022/12/05 06:21:47;;;;;;;49.70;17.57;;;;;;;;;;5026997;28;20106;-70
2022/12/05 06:24:12;;;;;;;52.45;17.92;;;;;;;;;;5029617;28;22506;-71
2022/12/05 06:26:37;;;;;;;44.97;17.67;;;;;;;;;;5026989;28;20126;-69
2022/12/05 06:29:02;;;;;;;43.45;18.50;;;;;;;;;;5026752;28;20058;-72
2022/12/05 06:31:30;;;;;;;50.75;18.33;;;;;;;;;;5019972;28;20025;-70
2022/12/05 06:33:58;;;;;;;47.80;16.90;;;;;;;;;;5018672;28;20029;-69
2022/12/05 06:36:23;;;;;;;41.72;17.45;;;;;;;;;;5027093;28;20022;-71
2022/12/05 06:38:48;;;;;;;46.90;16.65;;;;;;;;;;5023420;28;20390;-73
2022/12/05 06:41:15;;;;;;;48.97;18.70;;;;;;;;;;5025054;28;20025;-69
2022/12/05 06:43:40;;;;;;;44.90;17.17;;;;;;;;;;5031356;28;20461;-70
2022/12/05 06:46:06;;;;;;;46.83;17.95;;;;;;;;;;5022815;28;20049;-71
2022/12/05 06:48:31;;;;;;;48.30;17.58;;;;;;;;;;5023808;28;20017;-69
2022/12/05 06:50:56;;;;;;;45.53;18.45;;;;;;;;;;5025888;28;20022;-72
2022/12/05 06:53:22;;;;;;;49.13;18.00;;;;;;;;;;5019453;28;20029;-69
2022/12/05 06:55:57;;;;;;;44.15;16.23;;;;;;;;;;5022128;28;20359;-69
2022/12/05 06:58:22;;;;;;;40.50;16.08;;;;;;;;;;5025476;28;20405;-72
2022/12/05 07:03:31;;;;;;;42.17;17.30;;;;;;;;;;5025364;28;20040;-74
2022/12/05 07:05:59;;;;;;;48.33;17.27;;;;;;;;;;5021891;28;20021;-69
2022/12/05 07:08:24;;;;;;;38.08;16.13;;;;;;;;;;5027068;28;20045;-69
2022/12/05 07:10:51;;;;;;;39.90;17.80;;;;;;;;;;5027409;28;20449;-71
2022/12/05 07:13:16;;;;;;;44.40;15.95;;;;;;;;;;5021745;28;20429;-70
2022/12/05 07:15:41;;;;;;;46.83;17.13;;;;;;;;;;5028760;28;20076;-69
2022/12/05 07:18:06;;;;;;;45.37;17.10;;;;;;;;;;5022337;28;20059;-69
2022/12/05 07:20:31;;;;;;;47.30;17.17;;;;;;;;;;5027959;28;20771;-70
2022/12/05 07:22:57;;;;;;;45.75;20.88;;;;;;;;;;5019923;28;20026;-69
2022/12/05 07:25:23;;;;;;;44.03;17.08;;;;;;;;;;5028875;28;20096;-70
2022/12/05 07:27:48;;;;;;;49.97;17.80;;;;;;;;;;5024888;28;20471;-70
2022/12/05 07:30:14;;;;;;;50.22;18.52;;;;;;;;;;5021211;28;20108;-70
2022/12/05 07:32:39;;;;;;;43.15;17.02;;;;;;;;;;5021220;28;20065;-70
2022/12/05 07:35:04;;;;;;;43.92;16.73;;;;;;;;;;5019018;28;20083;-72
2022/12/05 07:37:29;;;;;;;50.08;17.92;;;;;;;;;;5020186;28;20033;-69
2022/12/05 07:39:54;;;;;;;45.15;16.33;;;;;;;;;;5017583;28;20651;-71
2022/12/05 07:42:20;;;;;;;50.05;17.48;;;;;;;;;;5016010;28;20029;-70
2022/12/05 07:44:45;;;;;;;44.35;17.45;;;;;;;;;;5024739;28;20108;-72
2022/12/05 07:47:10;;;;;;;42.50;16.97;;;;;;;;;;5011797;28;20026;-70
2022/12/05 07:49:35;;;;;;;44.50;16.77;;;;;;;;;;5025591;28;20299;-72
2022/12/05 07:52:01;;;;;;;42.35;16.85;;;;;;;;;;5027133;28;20283;-72
2022/12/05 07:54:26;;;;;;;43.97;17.27;;;;;;;;;;5019834;28;20028;-70
2022/12/05 07:56:51;;;;;;;50.58;20.33;;;;;;;;;;5016407;28;20385;-71
2022/12/05 07:59:16;;;;;;;48.83;17.63;;;;;;;;;;5019875;28;20017;-71
2022/12/05 08:01:41;;;;;;;44.30;17.00;;;;;;;;;;5020313;28;20079;-69
2022/12/05 08:04:07;;;;;;;48.63;17.63;;;;;;;;;;5016515;28;20493;-70
2022/12/05 08:06:32;;;;;;;46.65;17.30;;;;;;;;;;5022612;28;20022;-69
2022/12/05 08:08:57;;;;;;;44.97;16.08;;;;;;;;;;5021512;28;20028;-70
2022/12/05 08:11:27;;;;;;;44.70;16.40;;;;;;;;;;5029720;28;20117;-72
2022/12/05 08:13:52;;;;;;;42.80;16.92;;;;;;;;;;5024312;28;20021;-70
2022/12/05 08:16:19;;;;;;;41.30;16.00;;;;;;;;;;5015211;28;20030;-72
2022/12/05 08:18:45;;;;;;;49.25;18.42;;;;;;;;;;5024669;28;20435;-69
2022/12/05 08:21:14;;;;;;;44.78;18.27;;;;;;;;;;5013135;28;20018;-70
2022/12/05 08:23:40;;;;;;;46.45;17.58;;;;;;;;;;5025290;28;20094;-70
2022/12/05 08:26:06;;;;;;;39.92;16.63;;;;;;;;;;5014680;28;20567;-70
2022/12/05 08:28:32;;;;;;;36.20;15.48;;;;;;;;;;5022548;28;20167;-69
2022/12/05 08:31:04;;;;;;;44.83;17.00;;;;;;;;;;5027827;28;20104;-70
2022/12/05 08:33:30;;;;;;;37.90;17.05;;;;;;;;;;5017517;28;20489;-69
2022/12/05 08:35:55;;;;;;;41.67;17.15;;;;;;;;;;5018594;28;20064;-70
2022/12/05 08:38:20;;;;;;;39.28;17.15;;;;;;;;;;5014355;28;20159;-69
2022/12/05 08:40:46;;;;;;;47.03;18.70;;;;;;;;;;5022754;28;20029;-70
2022/12/05 08:43:11;;;;;;;45.50;17.27;;;;;;;;;;5029619;28;20014;-69
2022/12/05 08:45:37;;;;;;;38.50;16.25;;;;;;;;;;5018954;28;20029;-71
2022/12/05 08:48:02;;;;;;;47.42;16.63;;;;;;;;;;5027159;28;20428;-69
2022/12/05 08:50:27;;;;;;;39.88;17.58;;;;;;;;;;5021385;28;20539;-72
2022/12/05 08:52:52;;;;;;;40.38;15.98;;;;;;;;;;5024056;28;20037;-69
2022/12/05 08:55:17;;;;;;;44.88;18.30;;;;;;;;;;5015221;28;20026;-71
2022/12/05 08:57:42;;;;;;;38.17;15.48;;;;;;;;;;5031759;28;20545;-69
2022/12/05 09:00:08;;;;;;;39.58;15.88;;;;;;;;;;5016940;28;20028;-70
2022/12/05 09:02:33;;;;;;;44.67;16.60;;;;;;;;;;5025651;28;20045;-70
2022/12/05 09:04:58;;;;;;;42.80;17.75;;;;;;;;;;5025256;28;20108;-70
2022/12/05 09:07:24;;;;;;;47.70;17.13;;;;;;;;;;5025117;28;20017;-69
2022/12/05 09:09:49;;;;;;;36.90;15.63;;;;;;;;;;5019243;28;20334;-69
2022/12/05 09:12:14;;;;;;;34.67;15.07;;;;;;;;;;5020654;28;20025;-74
2022/12/05 09:14:39;;;;;;;45.17;17.07;;;;;;;;;;5035423;28;20029;-70
2022/12/05 09:17:05;;;;;;;37.03;15.70;;;;;;;;;;5019748;28;20283;-70
2022/12/05 09:19:31;;;;;;;36.75;16.42;;;;;;;;;;5031387;28;20284;-70
2022/12/05 09:21:57;;;;;;;40.47;15.75;;;;;;;;;;5022783;28;20029;-69
2022/12/05 09:24:22;;;;;;;37.58;16.58;;;;;;;;;;5018757;28;20033;-69
2022/12/05 09:26:47;;;;;;;41.80;17.08;;;;;;;;;;5020645;28;20367;-69
2022/12/05 09:29:12;;;;;;;38.60;16.48;;;;;;;;;;5022724;28;20387;-69
2022/12/05 09:31:38;;;;;;;41.00;16.05;;;;;;;;;;5019507;28;20029;-68
2022/12/05 09:34:03;;;;;;;45.85;16.90;;;;;;;;;;5026984;28;20025;-69
2022/12/05 09:36:29;;;;;;;41.42;18.10;;;;;;;;;;5025856;28;20489;-69
2022/12/05 09:38:57;;;;;;;39.38;17.33;;;;;;;;;;5018966;28;20078;-69
2022/12/05 09:42:03;;;;;;;41.17;17.77;;;;;;;;;;5027828;28;20116;-69
2022/12/05 09:44:14;;;;;;;43.30;17.30;;;;;;;;;;5015068;28;20059;-67
2022/12/05 09:46:53;;;;;;;44.92;16.98;;;;;;;;;;5027542;28;20021;-69
2022/12/05 09:49:19;;;;;;;34.63;14.82;;;;;;;;;;5023065;28;20513;-69
2022/12/05 09:51:45;;;;;;;30.17;14.55;;;;;;;;;;5034281;28;20029;-69
2022/12/05 09:54:11;;;;;;;32.97;15.48;;;;;;;;;;5022533;28;20022;-69
2022/12/05 09:56:37;;;;;;;33.45;15.75;;;;;;;;;;5020678;28;20064;-69
2022/12/05 09:59:04;;;;;;;37.40;16.00;;;;;;;;;;5020895;28;20057;-69
2022/12/05 10:01:40;;;;;;;35.10;15.85;;;;;;;;;;5016192;28;20105;-69
2022/12/05 10:04:14;;;;;;;31.73;14.35;;;;;;;;;;5019832;28;20096;-69
2022/12/05 10:06:42;;;;;;;34.20;16.23;;;;;;;;;;5011672;28;20009;-69
2022/12/05 10:09:10;;;;;;;38.85;15.80;;;;;;;;;;5013118;28;20096;-70
2022/12/05 10:11:58;;;;;;;38.95;15.27;;;;;;;;;;5020261;28;20120;-68
2022/12/05 10:14:29;;;;;;;36.22;14.55;;;;;;;;;;5010068;28;20037;-69
2022/12/05 10:16:56;;;;;;;37.78;15.55;;;;;;;;;;5023333;28;20013;-69
2022/12/05 10:19:30;;;;;;;33.50;11.95;;;;;;;;;;5015921;28;20026;-69
2022/12/05 10:22:06;;;;;;;29.58;14.05;;;;;;;;;;5016172;28;20083;-69
2022/12/05 10:24:35;;;;;;;30.52;14.18;;;;;;;;;;5017036;28;20091;-69
2022/12/05 10:27:03;;;;;;;33.28;12.93;;;;;;;;;;5028858;28;20063;-69
2022/12/05 10:29:33;;;;;;;40.58;16.98;;;;;;;;;;5020230;28;20177;-69
2022/12/05 10:32:25;;;;;;;35.33;14.65;;;;;;;;;;5031378;28;20024;-69
2022/12/05 10:34:53;;;;;;;29.65;14.27;;;;;;;;;;5007877;28;20041;-69
2022/12/05 10:37:19;;;;;;;27.73;13.05;;;;;;;;;;5032494;23;20412;-71
2022/12/05 10:39:45;;;;;;;25.83;12.48;;;;;;;;;;4968930;28;20468;-72
2022/12/05 10:42:25;;;;;;;32.55;16.17;;;;;;;;;;4969283;28;20127;-72
2022/12/05 10:44:54;;;;;;;35.28;14.75;;;;;;;;;;4975925;28;20018;-72
2022/12/05 10:47:19;;;;;;;32.45;14.43;;;;;;;;;;4975120;28;20033;-71
2022/12/05 10:49:46;;;;;;;31.40;14.98;;;;;;;;;;4972662;28;20023;-71
2022/12/05 10:52:12;;;;;;;36.40;16.17;;;;;;;;;;4971968;28;20050;-72
2022/12/05 10:54:41;;;;;;;31.65;13.63;;;;;;;;;;4972836;28;20030;-73
2022/12/05 10:57:33;;;;;;;31.65;14.45;;;;;;;;;;4966550;28;20487;-72
2022/12/05 11:00:08;;;;;;;39.47;14.40;;;;;;;;;;4968596;28;20046;-71
2022/12/05 11:02:33;;;;;;;30.30;14.23;;;;;;;;;;4975529;28;20027;-72
2022/12/05 11:04:59;;;;;;;29.83;13.80;;;;;;;;;;4974478;28;20655;-71
2022/12/05 11:07:27;;;;;;;37.97;15.75;;;;;;;;;;4971469;28;20027;-71
2022/12/05 11:09:52;;;;;;;31.08;14.50;;;;;;;;;;4968855;28;20118;-72
2022/12/05 11:12:19;;;;;;;36.33;15.30;;;;;;;;;;4974637;28;20105;-72
2022/12/05 11:14:56;;;;;;;47.08;17.23;;;;;;;;;;4973967;28;20041;-72
2022/12/05 11:17:24;;;;;;;41.15;17.63;;;;;;;;;;4969214;28;20034;-71
2022/12/05 11:19:49;;;;;;;41.08;17.50;;;;;;;;;;4980380;28;20410;-71
2022/12/05 11:22:15;;;;;;;46.42;18.13;;;;;;;;;;4973295;28;20078;-72
2022/12/05 11:24:41;;;;;;;38.30;16.77;;;;;;;;;;4973673;28;20030;-72
2022/12/05 11:27:15;;;;;;;41.65;17.65;;;;;;;;;;4971907;28;20022;-71
2022/12/05 11:29:40;;;;;;;42.83;16.15;;;;;;;;;;4973233;28;20030;-71
2022/12/05 11:32:16;;;;;;;38.97;16.95;;;;;;;;;;4970929;28;20030;-72
2022/12/05 11:34:45;;;;;;;39.35;16.73;;;;;;;;;;4976900;28;20553;-71
2022/12/05 11:37:13;;;;;;;36.72;16.85;;;;;;;;;;4969459;28;20060;-72
2022/12/05 11:39:39;;;;;;;38.15;16.33;;;;;;;;;;4969438;28;20027;-71
2022/12/05 11:42:09;;;;;;;33.80;16.80;;;;;;;;;;4971757;28;20094;-72
2022/12/05 11:44:34;;;;;;;40.10;16.77;;;;;;;;;;4978437;28;20011;-72
2022/12/05 11:47:09;;;;;;;38.60;15.65;;;;;;;;;;4972951;28;20105;-71
2022/12/05 11:49:35;;;;;;;37.00;15.23;;;;;;;;;;4974650;28;20270;-71
2022/12/05 11:52:07;;;;;;;42.15;17.75;;;;;;;;;;4972178;28;20763;-71
2022/12/05 11:54:47;;;;;;;44.25;17.52;;;;;;;;;;4972989;28;20026;-73
2022/12/05 11:57:22;;;;;;;41.88;17.67;;;;;;;;;;4975550;28;20055;-71
2022/12/05 11:59:50;;;;;;;39.70;18.27;;;;;;;;;;4969773;28;20030;-71
2022/12/05 12:02:31;;;;;;;39.83;19.30;;;;;;;;;;4971295;28;20069;-71
2022/12/05 12:04:56;;;;;;;45.70;20.25;;;;;;;;;;4969977;28;20466;-71
2022/12/05 12:07:40;;;;;;;45.45;20.48;;;;;;;;;;4969241;28;20149;-72
2022/12/05 12:10:22;;;;;;;47.10;20.95;;;;;;;;;;4966016;28;20034;-73
2022/12/05 12:13:26;;;;;;;50.03;22.02;;;;;;;;;;4979139;28;20407;-73
2022/12/05 12:16:04;;;;;;;50.03;22.42;;;;;;;;;;4899468;29;20032;-71
2022/12/05 12:18:32;;;;;;;51.28;23.42;;;;;;;;;;4898000;29;20031;-71
2022/12/05 12:21:36;;;;;;;58.65;23.27;;;;;;;;;;4936867;28;20070;-71
2022/12/05 12:24:06;;;;;;;56.00;21.50;;;;;;;;;;4948834;28;20035;-71
2022/12/05 12:26:32;;;;;;;;;;;;;;;;;;4948169;29;20598;-71
2022/12/05 12:29:17;;;;;;;52.30;22.88;;;;;;;;;;4956583;28;19918;-72
2022/12/05 12:31:42;;;;;;;64.95;26.33;;;;;;;;;;4964672;28;20205;-71
2022/12/05 12:34:30;;;;;;;71.68;30.55;;;;;;;;;;4968107;28;20039;-72
2022/12/05 12:37:06;;;;;;;70.63;31.63;;;;;;;;;;4969856;28;20054;-73
2022/12/05 12:39:52;;;;;;;72.60;31.73;;;;;;;;;;4974439;28;20138;-72
2022/12/05 12:42:17;;;;;;;65.22;30.42;;;;;;;;;;4975866;28;20027;-72
2022/12/05 12:44:48;;;;;;;67.88;30.63;;;;;;;;;;4973457;28;20026;-72
2022/12/05 12:47:20;;;;;;;62.90;29.02;;;;;;;;;;4971628;28;20266;-73
2022/12/05 12:49:54;;;;;;;63.03;27.48;;;;;;;;;;4972152;28;20037;-72
2022/12/05 12:52:25;;;;;;;66.90;25.33;;;;;;;;;;4963830;28;20034;-72
2022/12/05 12:54:58;;;;;;;59.90;27.02;;;;;;;;;;4973825;28;20029;-72
2022/12/05 12:57:42;;;;;;;56.40;23.95;;;;;;;;;;4967888;28;20503;-72
2022/12/05 13:00:13;;;;;;;55.85;25.38;;;;;;;;;;4963773;28;20027;-73
2022/12/05 13:02:42;;;;;;;49.88;22.73;;;;;;;;;;4971743;28;20128;-72
2022/12/05 13:05:24;;;;;;;42.95;19.30;;;;;;;;;;4967603;28;20102;-72
2022/12/05 13:08:04;;;;;;;38.38;18.58;;;;;;;;;;4966482;28;20094;-72
2022/12/05 13:10:33;;;;;;;36.88;17.13;;;;;;;;;;4971909;28;20471;-72
2022/12/05 13:12:59;;;;;;;41.63;18.30;;;;;;;;;;4966846;28;20039;-72
2022/12/05 13:15:43;;;;;;;31.88;16.48;;;;;;;;;;4966945;28;20423;-72
2022/12/05 13:18:13;;;;;;;31.40;17.17;;;;;;;;;;4960445;28;20035;-72
2022/12/05 13:20:39;;;;;;;26.25;14.38;;;;;;;;;;4971568;28;20023;-71
2022/12/05 13:23:06;;;;;;;30.67;14.45;;;;;;;;;;4970533;28;20026;-70
2022/12/05 13:25:33;;;;;;;27.95;15.20;;;;;;;;;;4970856;28;20430;-71
2022/12/05 13:28:00;;;;;;;34.55;15.68;;;;;;;;;;4961229;28;20019;-71
2022/12/05 13:30:29;;;;;;;32.60;16.60;;;;;;;;;;4967049;28;20047;-72
2022/12/05 13:33:00;;;;;;;29.20;14.98;;;;;;;;;;4963662;28;20070;-72
2022/12/05 13:43:51;;;;;;;42.28;18.35;;;;;;;;;;4959034;28;20119;-71
2022/12/05 13:46:31;;;;;;;37.73;15.87;;;;;;;;;;4965687;28;20018;-71
2022/12/05 13:49:16;;;;;;;34.13;14.93;;;;;;;;;;4969679;28;22183;-71
2022/12/05 13:51:43;;;;;;;35.38;16.33;;;;;;;;;;4973512;28;20082;-71
2022/12/05 13:54:17;;;;;;;31.75;17.27;;;;;;;;;;4969273;28;20034;-71
2022/12/05 13:56:48;;;;;;;28.92;15.02;;;;;;;;;;4970142;28;20038;-71
2022/12/05 13:59:33;;;;;;;28.13;14.30;;;;;;;;;;4964400;28;20027;-72
2022/12/05 14:01:59;;;;;;;35.22;16.45;;;;;;;;;;4972741;28;20023;-72
2022/12/05 14:04:42;;;;;;;28.85;13.82;;;;;;;;;;4973750;28;20018;-71
2022/12/05 14:07:09;;;;;;;30.55;14.13;;;;;;;;;;4971025;28;20517;-71
2022/12/05 14:09:51;;;;;;;38.50;19.38;;;;;;;;;;4968509;28;20399;-71
2022/12/05 14:12:16;;;;;;;35.45;19.15;;;;;;;;;;4966593;28;20049;-72
2022/12/05 14:14:58;;;;;;;37.50;18.13;;;;;;;;;;4969360;28;20487;-73
2022/12/05 14:17:24;;;;;;;29.45;15.70;;;;;;;;;;4964490;28;20266;-72
2022/12/05 14:19:57;;;;;;;30.08;15.18;;;;;;;;;;4971719;28;20394;-72
2022/12/05 14:22:31;;;;;;;28.08;14.80;;;;;;;;;;4967462;28;20029;-72
2022/12/05 14:25:09;;;;;;;34.78;16.85;;;;;;;;;;4967235;28;20117;-72
2022/12/05 14:27:45;;;;;;;32.33;16.15;;;;;;;;;;4971930;28;20447;-71
2022/12/05 14:30:10;;;;;;;36.70;16.10;;;;;;;;;;4968825;28;20043;-71
2022/12/05 14:32:37;;;;;;;32.08;16.33;;;;;;;;;;4971010;28;20062;-71
2022/12/05 14:35:09;;;;;;;32.88;16.50;;;;;;;;;;4969609;28;20371;-72
2022/12/05 14:37:36;;;;;;;35.65;17.02;;;;;;;;;;4968666;28;20113;-71
2022/12/05 14:40:22;;;;;;;39.22;18.38;;;;;;;;;;4972073;28;20458;-71
2022/12/05 14:42:52;;;;;;;37.70;17.52;;;;;;;;;;4969084;28;20561;-71
2022/12/05 14:45:18;;;;;;;;;;;;;;;;;;4969520;28;20027;-71
2022/12/05 14:47:48;;;;;;;38.45;19.52;;;;;;;;;;4971084;28;19909;-71